Time;durP1;ratioP1;P1;durP2;ratioP2;P2;SDS_P1;SDS_P2;PMS_P1;PMS_P2;Temp;Humidity;BMP_temperature;BMP_pressure;BME280_temperature;BME280_humidity;BME280_pressure;Samples;Min_cycle;Max_cycle;Signal;HPM_P1;HPM_P2
2022/11/04 00:01:52;;;;;;;;;;;16.60;98.70;;;;;;5113333;28;20239;-89
2022/11/04 00:04:18;;;;;;;;;;;16.60;98.70;;;;;;5113368;28;19908;-89
2022/11/04 00:06:51;;;;;;;;;;;16.60;98.80;;;;;;5115419;28;19908;-89
2022/11/04 00:09:21;;;;;;;;;;;16.60;98.80;;;;;;5115145;28;19912;-89
2022/11/04 00:14:31;;;;;;;;;;;16.60;98.80;;;;;;5115255;28;20205;-89
2022/11/04 00:33:24;;;;;;;;;;;16.50;98.90;;;;;;5116898;28;19976;-89
2022/11/04 00:33:49;;;;;;;;;;;16.60;98.90;;;;;;5120480;28;20280;-89
2022/11/04 00:36:15;;;;;;;;;;;16.60;98.90;;;;;;5119953;28;19964;-89
2022/11/04 00:38:41;;;;;;;;;;;16.50;99.20;;;;;;5119833;28;19908;-89
2022/11/04 00:41:24;;;;;;;;;;;16.60;99.00;;;;;;5119646;28;19908;-89
2022/11/04 00:43:54;;;;;;;;;;;16.60;99.00;;;;;;5119734;28;19915;-89
2022/11/04 00:46:20;;;;;;;;;;;16.50;99.00;;;;;;5119808;28;19998;-89
2022/11/04 00:48:45;;;;;;;;;;;16.50;99.00;;;;;;5120217;28;20010;-90
2022/11/04 00:51:11;;;;;;;;;;;16.50;99.00;;;;;;5120510;28;20277;-89
2022/11/04 00:53:37;;;;;;;;;;;16.50;99.00;;;;;;5119690;28;19919;-89
2022/11/04 00:56:02;;;;;;;;;;;16.50;99.00;;;;;;5119765;28;19918;-89
2022/11/04 00:58:28;;;;;;;;;;;16.50;99.00;;;;;;5120095;28;19986;-89
2022/11/04 01:00:53;;;;;;;;;;;16.50;99.10;;;;;;5119602;28;20006;-89
2022/11/04 01:03:19;;;;;;;;;;;16.50;99.10;;;;;;5119409;28;19955;-89
2022/11/04 01:05:45;;;;;;;;;;;16.50;99.10;;;;;;5119756;28;20270;-89
2022/11/04 01:08:10;;;;;;;;;;;16.40;99.40;;;;;;5120222;28;19912;-89
2022/11/04 01:10:43;;;;;;;;;;;16.50;99.20;;;;;;5118958;28;19935;-89
2022/11/04 01:13:09;;;;;;;;;;;16.50;99.20;;;;;;5119718;28;19976;-89
2022/11/04 01:15:35;;;;;;;;;;;16.50;99.20;;;;;;5119405;28;19916;-89
2022/11/04 01:18:01;;;;;;;;;;;16.50;99.20;;;;;;5118770;28;20006;-89
2022/11/04 01:20:27;;;;;;;;;;;16.50;99.20;;;;;;5118150;28;20029;-89
2022/11/04 01:22:52;;;;;;;;;;;16.40;99.10;;;;;;5117914;28;19907;-89
2022/11/04 01:25:18;;;;;;;;;;;16.50;99.20;;;;;;5118013;28;20271;-89
2022/11/04 01:27:44;;;;;;;;;;;16.40;99.10;;;;;;5117138;28;20322;-89
2022/11/04 01:30:10;;;;;;;;;;;16.40;99.10;;;;;;5117670;28;20205;-89
2022/11/04 01:32:35;;;;;;;;;;;16.40;99.20;;;;;;5117794;28;20206;-89
2022/11/04 01:35:01;;;;;;;;;;;16.40;99.20;;;;;;5117787;28;19919;-89
2022/11/04 01:37:26;;;;;;;;;;;16.40;99.20;;;;;;5117943;28;20082;-89
2022/11/04 01:39:52;;;;;;;;;;;16.40;99.20;;;;;;5119275;28;20006;-89
2022/11/04 01:42:20;;;;;;;;;;;16.40;99.20;;;;;;5119104;28;19908;-89
2022/11/04 01:44:45;;;;;;;;;;;16.40;99.20;;;;;;5119498;28;20184;-89
2022/11/04 01:47:16;;;;;;;;;;;16.40;99.20;;;;;;5118782;28;19908;-89
2022/11/04 01:49:43;;;;;;;;;;;16.40;99.20;;;;;;5118199;28;20304;-89
2022/11/04 01:52:11;;;;;;;;;;;16.40;99.20;;;;;;5117997;28;19919;-89
2022/11/04 01:54:37;;;;;;;;;;;16.40;99.20;;;;;;5113739;28;19915;-89
2022/11/04 01:57:04;;;;;;;;;;;16.40;99.20;;;;;;5114078;28;19985;-89
2022/11/04 01:59:33;;;;;;;;;;;16.40;99.20;;;;;;5115132;28;19947;-89
2022/11/04 02:01:58;;;;;;;;;;;16.40;99.20;;;;;;5113375;28;19919;-89
2022/11/04 02:04:24;;;;;;;;;;;16.40;99.20;;;;;;5115703;28;19908;-89
2022/11/04 02:06:52;;;;;;;;;;;16.40;99.20;;;;;;5115492;28;19934;-89
2022/11/04 02:09:18;;;;;;;;;;;16.40;99.20;;;;;;5115647;28;19942;-89
2022/11/04 02:14:28;;;;;;;;;;;16.30;99.20;;;;;;5116022;28;20192;-89
2022/11/04 02:17:03;;;;;;;;;;;16.40;99.20;;;;;;5114543;28;19907;-89
2022/11/04 02:19:39;;;;;;;;;;;16.40;99.20;;;;;;5113712;28;19911;-89
2022/11/04 02:22:08;;;;;;;;;;;16.40;99.20;;;;;;5114353;28;19912;-89
2022/11/04 02:24:39;;;;;;;;;;;16.30;99.20;;;;;;5114430;28;19907;-89
2022/11/04 02:27:21;;;;;;;;;;;16.40;99.20;;;;;;5117104;28;19972;-89
2022/11/04 02:29:52;;;;;;;;;;;16.30;99.20;;;;;;5116343;28;19977;-90
2022/11/04 02:32:24;;;;;;;;;;;16.40;99.20;;;;;;5118601;28;20188;-89
2022/11/04 02:34:52;;;;;;;;;;;16.30;99.20;;;;;;5117755;28;19991;-87
2022/11/04 02:37:41;;;;;;;;;;;16.30;99.20;;;;;;5117144;28;20254;-87
2022/11/04 02:40:15;;;;;;;;;;;16.30;99.20;;;;;;5115969;28;19918;-87
2022/11/04 02:42:47;;;;;;;;;;;16.30;99.20;;;;;;5114170;28;19907;-87
2022/11/04 02:45:18;;;;;;;;;;;16.30;99.20;;;;;;5117030;28;19919;-87
2022/11/04 02:47:48;;;;;;;;;;;16.30;99.20;;;;;;5117592;28;19994;-87
2022/11/04 02:50:22;;;;;;;;;;;16.30;99.20;;;;;;5116970;28;19954;-87
2022/11/04 02:52:54;;;;;;;;;;;16.30;99.20;;;;;;5114560;28;19958;-87
2022/11/04 02:55:29;;;;;;;;;;;16.30;99.20;;;;;;5114037;28;20247;-87
2022/11/04 02:57:58;;;;;;;;;;;16.30;99.20;;;;;;5115263;28;19907;-87
2022/11/04 03:00:23;;;;;;;;;;;16.30;99.20;;;;;;5115758;28;19908;-87
2022/11/04 03:02:54;;;;;;;;;;;16.20;99.20;;;;;;5116825;28;19907;-87
2022/11/04 03:05:21;;;;;;;;;;;16.30;99.20;;;;;;5117642;28;20331;-87
2022/11/04 03:07:49;;;;;;;;;;;16.20;99.10;;;;;;5117488;28;19907;-88
2022/11/04 03:10:24;;;;;;;;;;;16.20;99.10;;;;;;5117792;28;20218;-87
2022/11/04 03:13:02;;;;;;;;;;;16.20;99.10;;;;;;5116376;28;20151;-87
2022/11/04 03:15:30;;;;;;;;;;;16.20;99.10;;;;;;5116784;28;19927;-87
2022/11/04 03:18:02;;;;;;;;;;;16.20;99.10;;;;;;5117119;28;20002;-87
2022/11/04 03:20:29;;;;;;;;;;;16.20;99.10;;;;;;5115786;28;19915;-87
2022/11/04 03:22:59;;;;;;;;;;;16.20;99.10;;;;;;5116201;28;19908;-87
2022/11/04 03:25:26;;;;;;;;;;;16.20;99.10;;;;;;5115485;28;20334;-87
2022/11/04 03:28:00;;;;;;;;;;;16.20;99.10;;;;;;5116374;28;20108;-87
2022/11/04 03:30:31;;;;;;;;;;;16.20;99.10;;;;;;5116038;28;19980;-87
2022/11/04 03:33:05;;;;;;;;;;;16.20;99.30;;;;;;5116110;28;20151;-87
2022/11/04 03:35:31;;;;;;;;;;;16.20;99.00;;;;;;5116847;28;20273;-87
2022/11/04 03:37:57;;;;;;;;;;;16.20;99.00;;;;;;5116485;28;19907;-87
2022/11/04 03:40:23;;;;;;;;;;;16.20;99.00;;;;;;5115875;28;19918;-87
2022/11/04 03:42:59;;;;;;;;;;;16.20;99.00;;;;;;5115139;28;19968;-87
2022/11/04 03:45:25;;;;;;;;;;;16.20;98.90;;;;;;5115165;28;19912;-87
2022/11/04 03:47:51;;;;;;;;;;;16.20;98.90;;;;;;5114170;28;19922;-87
2022/11/04 03:50:27;;;;;;;;;;;16.20;99.00;;;;;;5114091;28;19908;-87
2022/11/04 03:52:54;;;;;;;;;;;16.20;99.00;;;;;;5114478;28;20308;-87
2022/11/04 03:55:21;;;;;;;;;;;16.20;99.00;;;;;;5113306;28;19927;-87
2022/11/04 03:57:47;;;;;;;;;;;16.20;99.00;;;;;;5114285;28;20229;-87
2022/11/04 04:00:14;;;;;;;;;;;16.10;99.00;;;;;;5115036;28;19946;-87
2022/11/04 04:02:59;;;;;;;;;;;16.20;99.00;;;;;;5114480;28;20281;-87
2022/11/04 04:05:37;;;;;;;;;;;16.20;99.00;;;;;;5113393;28;19912;-87
2022/11/04 04:08:12;;;;;;;;;;;16.20;99.00;;;;;;5113069;28;20269;-87
2022/11/04 04:10:53;;;;;;;;;;;16.20;99.00;;;;;;5112297;28;19962;-87
2022/11/04 04:13:22;;;;;;;;;;;16.10;99.00;;;;;;5112608;28;19943;-87
2022/11/04 04:15:53;;;;;;;;;;;16.10;99.00;;;;;;5112817;28;19919;-86
2022/11/04 04:18:25;;;;;;;;;;;16.10;99.00;;;;;;5114262;28;19989;-88
2022/11/04 04:20:52;;;;;;;;;;;16.10;99.00;;;;;;5113599;28;20182;-88
2022/11/04 04:28:51;;;;;;;;;;;16.10;99.00;;;;;;5113884;28;19942;-88
2022/11/04 04:31:48;;;;;;;;;;;16.10;99.00;;;;;;5113356;28;19908;-88
2022/11/04 04:34:03;;;;;;;;;;;16.10;99.00;;;;;;5113162;28;19998;-88
2022/11/04 04:36:31;;;;;;;;;;;16.10;99.00;;;;;;5112242;28;20060;-88
2022/11/04 04:47:18;;;;;;;;;;;16.00;99.00;;;;;;5112025;28;20189;-88
2022/11/04 04:49:54;;;;;;;;;;;16.00;99.00;;;;;;5112562;28;19919;-88
2022/11/04 04:52:20;;;;;;;;;;;16.00;99.10;;;;;;5111079;28;20196;-88
2022/11/04 04:54:46;;;;;;;;;;;16.10;99.00;;;;;;5111201;28;20058;-88
2022/11/04 04:57:12;;;;;;;;;;;16.20;98.80;;;;;;5113452;28;20002;-88
2022/11/04 04:59:38;;;;;;;;;;;16.30;98.50;;;;;;5112725;28;20074;-88
2022/11/04 05:02:03;;;;;;;;;;;16.40;98.20;;;;;;5110828;28;19908;-88
2022/11/04 05:04:29;;;;;;;;;;;16.60;97.90;;;;;;5111024;28;20242;-88
2022/11/04 05:06:55;;;;;;;;;;;16.70;97.40;;;;;;5111820;28;19912;-88
2022/11/04 05:09:20;;;;;;;;;;;16.90;97.00;;;;;;5110713;28;19959;-88
2022/11/04 05:11:46;;;;;;;;;;;17.00;96.50;;;;;;5110412;28;19912;-88
2022/11/04 05:14:11;;;;;;;;;;;17.10;96.20;;;;;;5111782;28;20046;-88
2022/11/04 05:16:37;;;;;;;;;;;17.20;95.80;;;;;;5111984;28;20019;-88
2022/11/04 05:19:03;;;;;;;;;;;17.20;95.60;;;;;;5116600;28;19907;-88
2022/11/04 05:21:28;;;;;;;;;;;17.20;95.50;;;;;;5116570;28;20149;-88
2022/11/04 05:23:54;;;;;;;;;;;17.20;95.50;;;;;;5114224;28;19916;-88
2022/11/04 05:26:19;;;;;;;;;;;17.10;95.50;;;;;;5116009;28;19915;-88
2022/11/04 05:28:45;;;;;;;;;;;17.10;95.60;;;;;;5115332;28;19916;-88
2022/11/04 05:31:10;;;;;;;;;;;17.10;95.70;;;;;;5115771;28;20288;-88
2022/11/04 05:33:36;;;;;;;;;;;17.10;95.70;;;;;;5114166;28;19954;-88
2022/11/04 05:36:06;;;;;;;;;;;17.00;95.90;;;;;;5112338;28;19908;-88
2022/11/04 05:38:31;;;;;;;;;;;16.90;95.90;;;;;;5113777;28;20158;-88
2022/11/04 05:40:57;;;;;;;;;;;16.90;96.10;;;;;;5112225;28;20146;-88
2022/11/04 05:43:22;;;;;;;;;;;16.90;96.10;;;;;;5112252;28;19915;-88
2022/11/04 05:45:48;;;;;;;;;;;16.80;96.20;;;;;;5111510;28;19908;-88
2022/11/04 05:48:14;;;;;;;;;;;16.80;96.30;;;;;;5112930;28;19912;-88
2022/11/04 05:50:40;;;;;;;;;;;16.80;96.40;;;;;;5112321;28;19919;-88
2022/11/04 05:53:05;;;;;;;;;;;16.80;96.40;;;;;;5112521;28;19911;-88
2022/11/04 05:55:32;;;;;;;;;;;16.80;96.50;;;;;;5110811;28;19994;-88
2022/11/04 05:57:58;;;;;;;;;;;16.70;96.90;;;;;;5112330;28;19915;-88
2022/11/04 06:00:38;;;;;;;;;;;16.70;96.60;;;;;;5113870;28;19904;-88
2022/11/04 06:03:04;;;;;;;;;;;16.70;96.70;;;;;;5112960;28;20180;-88
2022/11/04 06:05:30;;;;;;;;;;;16.60;96.70;;;;;;5111027;28;19908;-88
2022/11/04 06:07:55;;;;;;;;;;;16.60;96.80;;;;;;5113564;28;19918;-88
2022/11/04 06:10:21;;;;;;;;;;;16.60;96.80;;;;;;5111598;28;19964;-88
2022/11/04 06:12:47;;;;;;;;;;;16.60;96.90;;;;;;5111715;28;19914;-88
2022/11/04 06:15:13;;;;;;;;;;;16.50;96.90;;;;;;5110293;28;20038;-88
2022/11/04 06:17:38;;;;;;;;;;;16.50;97.00;;;;;;5112736;28;20048;-88
2022/11/04 06:20:05;;;;;;;;;;;16.50;97.10;;;;;;5112139;28;20293;-88
2022/11/04 06:22:31;;;;;;;;;;;16.50;97.10;;;;;;5109831;28;19918;-88
2022/11/04 06:24:56;;;;;;;;;;;16.50;97.20;;;;;;5108383;28;20335;-88
2022/11/04 06:27:22;;;;;;;;;;;16.40;97.20;;;;;;5107807;28;19907;-88
2022/11/04 06:29:48;;;;;;;;;;;16.40;97.30;;;;;;5104846;28;20123;-88
2022/11/04 06:32:14;;;;;;;;;;;16.40;97.40;;;;;;5106848;28;20048;-88
2022/11/04 06:34:40;;;;;;;;;;;16.40;97.40;;;;;;5106692;28;19915;-88
2022/11/04 06:37:06;;;;;;;;;;;16.40;97.40;;;;;;5106632;28;20162;-88
2022/11/04 06:39:32;;;;;;;;;;;16.40;97.50;;;;;;5105623;28;20059;-88
2022/11/04 06:41:58;;;;;;;;;;;16.40;97.50;;;;;;5107037;28;20372;-88
2022/11/04 06:44:23;;;;;;;;;;;16.40;97.40;;;;;;5104171;28;19998;-88
2022/11/04 06:46:49;;;;;;;;;;;16.50;97.40;;;;;;5103568;28;20201;-88
2022/11/04 06:49:19;;;;;;;;;;;16.50;97.40;;;;;;5106916;28;20186;-88
2022/11/04 06:51:45;;;;;;;;;;;16.50;97.30;;;;;;5107826;28;19908;-89
2022/11/04 06:54:10;;;;;;;;;;;16.60;97.30;;;;;;5105639;28;20132;-88
2022/11/04 06:56:38;;;;;;;;;;;16.60;97.20;;;;;;5105713;28;19919;-88
2022/11/04 06:59:03;;;;;;;;;;;16.70;97.10;;;;;;5105346;28;19907;-88
2022/11/04 07:01:30;;;;;;;;;;;16.70;97.00;;;;;;5105191;28;20193;-88
2022/11/04 07:03:56;;;;;;;;;;;16.80;96.90;;;;;;5105513;28;19968;-88
2022/11/04 07:06:23;;;;;;;;;;;16.80;96.80;;;;;;5103713;28;20008;-88
2022/11/04 07:08:49;;;;;;;;;;;16.80;96.80;;;;;;5104820;28;20516;-88
2022/11/04 07:11:15;;;;;;;;;;;16.80;96.70;;;;;;5101644;28;20325;-89
2022/11/04 07:13:41;;;;;;;;;;;16.90;96.70;;;;;;5103625;28;19915;-89
2022/11/04 07:16:07;;;;;;;;;;;16.90;96.70;;;;;;5105462;28;19922;-89
2022/11/04 07:18:33;;;;;;;;;;;16.90;96.60;;;;;;5105647;28;19908;-88
2022/11/04 07:20:59;;;;;;;;;;;16.90;96.60;;;;;;5103893;28;19980;-88
2022/11/04 07:23:24;;;;;;;;;;;16.90;96.60;;;;;;5105673;28;20281;-88
2022/11/04 07:25:50;;;;;;;;;;;16.90;96.60;;;;;;5107504;28;20062;-88
2022/11/04 07:28:15;;;;;;;;;;;16.90;96.60;;;;;;5107044;28;19916;-88
2022/11/04 07:30:41;;;;;;;;;;;16.90;96.60;;;;;;5105865;28;19918;-88
2022/11/04 07:33:07;;;;;;;;;;;16.90;96.70;;;;;;5106173;28;20327;-88
2022/11/04 07:35:34;;;;;;;;;;;16.90;96.70;;;;;;5105999;28;19935;-88
2022/11/04 07:38:02;;;;;;;;;;;16.80;96.70;;;;;;5106419;28;19939;-88
2022/11/04 07:40:27;;;;;;;;;;;16.80;96.70;;;;;;5108415;28;19918;-88
2022/11/04 07:42:53;;;;;;;;;;;16.80;97.00;;;;;;5107206;28;20111;-88
2022/11/04 07:45:18;;;;;;;;;;;16.80;96.80;;;;;;5108174;28;19908;-88
2022/11/04 07:47:44;;;;;;;;;;;16.80;96.90;;;;;;5107108;28;19918;-88
2022/11/04 07:50:10;;;;;;;;;;;16.80;96.90;;;;;;5109374;28;19912;-89
2022/11/04 07:52:35;;;;;;;;;;;16.70;96.90;;;;;;5108578;28;19907;-89
2022/11/04 07:55:01;;;;;;;;;;;16.70;97.00;;;;;;5108562;28;20350;-89
2022/11/04 07:57:27;;;;;;;;;;;16.70;97.00;;;;;;5107180;28;19908;-88
2022/11/04 07:59:53;;;;;;;;;;;16.70;96.90;;;;;;5108174;28;19930;-89
2022/11/04 08:02:18;;;;;;;;;;;16.70;97.00;;;;;;5109121;28;20204;-88
2022/11/04 08:04:44;;;;;;;;;;;16.70;97.00;;;;;;5108144;28;19916;-89
2022/11/04 08:07:10;;;;;;;;;;;16.70;97.10;;;;;;5106350;28;19908;-89
2022/11/04 08:09:35;;;;;;;;;;;16.70;97.10;;;;;;5107001;28;20204;-88
2022/11/04 08:12:02;;;;;;;;;;;16.70;97.20;;;;;;5104975;28;20270;-89
2022/11/04 08:14:28;;;;;;;;;;;16.70;97.20;;;;;;5105415;28;20158;-89
2022/11/04 08:16:53;;;;;;;;;;;16.80;97.20;;;;;;5107544;28;20085;-89
2022/11/04 08:19:19;;;;;;;;;;;16.70;97.20;;;;;;5106730;28;19908;-88
2022/11/04 08:21:45;;;;;;;;;;;16.70;97.30;;;;;;5106372;28;19908;-88
2022/11/04 08:24:10;;;;;;;;;;;16.70;97.40;;;;;;5107106;28;20020;-88
2022/11/04 08:26:37;;;;;;;;;;;16.70;97.30;;;;;;5107108;28;19908;-88
2022/11/04 08:29:08;;;;;;;;;;;16.70;97.30;;;;;;5105583;28;19920;-89
2022/11/04 08:31:35;;;;;;;;;;;16.70;97.30;;;;;;5108205;28;19908;-88
2022/11/04 08:34:00;;;;;;;;;;;16.70;97.30;;;;;;5104820;28;19995;-88
2022/11/04 08:36:26;;;;;;;;;;;16.80;97.20;;;;;;5104758;28;20015;-88
2022/11/04 08:38:51;;;;;;;;;;;17.10;96.90;;;;;;5105952;28;20254;-88
2022/11/04 08:41:19;;;;;;;;;;;17.60;95.30;;;;;;5105786;28;20126;-88
2022/11/04 08:43:45;;;;;;;;;;;17.70;94.70;;;;;;5104297;28;19908;-88
2022/11/04 08:46:11;;;;;;;;;;;17.80;94.40;;;;;;5107943;28;20149;-88
2022/11/04 08:48:37;;;;;;;;;;;17.80;94.10;;;;;;5106687;28;19995;-88
2022/11/04 08:51:04;;;;;;;;;;;17.90;93.90;;;;;;5108060;28;19999;-88
2022/11/04 08:53:30;;;;;;;;;;;17.90;93.60;;;;;;5109840;28;20441;-88
2022/11/04 08:55:56;;;;;;;;;;;17.80;93.60;;;;;;5113227;28;19911;-88
2022/11/04 08:58:22;;;;;;;;;;;18.40;92.80;;;;;;5111376;28;20071;-88
2022/11/04 09:00:48;;;;;;;;;;;19.60;89.80;;;;;;5112507;28;19947;-89
2022/11/04 09:03:14;;;;;;;;;;;20.30;82.10;;;;;;5112201;28;20016;-89
2022/11/04 09:05:43;;;;;;;;;;;20.40;81.20;;;;;;5109946;28;20303;-89
2022/11/04 09:08:15;;;;;;;;;;;20.90;76.90;;;;;;5108108;28;19916;-89
2022/11/04 09:10:42;;;;;;;;;;;20.40;76.60;;;;;;5109178;28;19908;-89
2022/11/04 09:13:10;;;;;;;;;;;19.80;79.70;;;;;;5110382;28;19918;-89
2022/11/04 09:15:35;;;;;;;;;;;19.40;82.80;;;;;;5110173;28;19916;-88
2022/11/04 09:18:01;;;;;;;;;;;19.10;84.90;;;;;;5109270;28;19919;-88
2022/11/04 09:20:27;;;;;;;;;;;19.10;86.00;;;;;;5108134;28;19907;-89
2022/11/04 09:22:53;;;;;;;;;;;19.00;85.90;;;;;;5109025;28;19945;-88
2022/11/04 09:25:18;;;;;;;;;;;19.10;86.00;;;;;;5109482;28;20248;-89
2022/11/04 09:27:44;;;;;;;;;;;19.50;82.80;;;;;;5107191;28;20304;-89
2022/11/04 09:30:10;;;;;;;;;;;19.40;82.50;;;;;;5106253;28;19915;-89
2022/11/04 09:32:35;;;;;;;;;;;19.10;84.00;;;;;;5106286;28;19968;-89
2022/11/04 09:35:04;;;;;;;;;;;18.80;85.90;;;;;;5106988;28;20273;-88
2022/11/04 09:37:29;;;;;;;;;;;18.60;87.50;;;;;;5108411;28;19908;-88
2022/11/04 09:39:55;;;;;;;;;;;18.50;89.00;;;;;;5109475;28;19973;-89
2022/11/04 09:42:28;;;;;;;;;;;18.30;90.00;;;;;;5109312;28;19908;-88
2022/11/04 09:45:00;;;;;;;;;;;18.20;90.30;;;;;;5110804;28;19922;-89
2022/11/04 09:47:26;;;;;;;;;;;18.10;90.70;;;;;;5111948;28;20212;-88
2022/11/04 09:49:53;;;;;;;;;;;18.00;91.00;;;;;;5112011;28;19922;-88
2022/11/04 09:52:27;;;;;;;;;;;18.00;91.20;;;;;;5110569;28;20018;-88
2022/11/04 09:54:53;;;;;;;;;;;18.00;91.40;;;;;;5110396;28;20157;-89
2022/11/04 09:57:19;;;;;;;;;;;18.00;91.40;;;;;;5111337;28;20065;-88
2022/11/04 09:59:45;;;;;;;;;;;18.00;91.50;;;;;;5110256;28;20139;-88
2022/11/04 10:02:23;;;;;;;;;;;17.90;91.50;;;;;;5109977;28;19907;-89
2022/11/04 10:05:08;;;;;;;;;;;18.00;91.60;;;;;;5108069;28;20152;-89
2022/11/04 10:07:57;;;;;;;;;;;17.90;91.70;;;;;;5106752;28;20265;-89
2022/11/04 10:10:45;;;;;;;;;;;17.90;91.70;;;;;;5106469;28;19954;-88
2022/11/04 10:13:21;;;;;;;;;;;18.00;91.80;;;;;;5107287;28;19965;-89
2022/11/04 10:16:03;;;;;;;;;;;18.00;91.50;;;;;;5107777;28;19922;-88
2022/11/04 10:18:47;;;;;;;;;;;18.10;91.40;;;;;;5108670;28;19908;-88
2022/11/04 10:21:16;;;;;;;;;;;18.10;91.30;;;;;;5109176;28;20322;-88
2022/11/04 10:23:43;;;;;;;;;;;18.20;91.30;;;;;;5108892;28;19915;-88
2022/11/04 10:26:18;;;;;;;;;;;18.20;91.10;;;;;;5109243;28;20244;-89
2022/11/04 10:28:51;;;;;;;;;;;18.20;91.00;;;;;;5111671;28;19912;-89
2022/11/04 10:31:17;;;;;;;;;;;18.30;91.00;;;;;;5110406;28;20316;-88
2022/11/04 10:33:51;;;;;;;;;;;18.30;90.90;;;;;;5107036;28;20308;-88
2022/11/04 10:36:16;;;;;;;;;;;18.30;90.90;;;;;;5106883;28;20177;-89
2022/11/04 10:38:55;;;;;;;;;;;18.30;90.90;;;;;;5105250;28;19938;-88
2022/11/04 10:41:25;;;;;;;;;;;18.30;90.80;;;;;;5106456;28;20322;-88
2022/11/04 10:43:58;;;;;;;;;;;18.30;90.90;;;;;;5106261;28;20083;-88
2022/11/04 10:46:36;;;;;;;;;;;18.30;90.90;;;;;;5104378;28;19918;-88
2022/11/04 10:49:19;;;;;;;;;;;18.30;90.90;;;;;;5104298;28;20010;-89
2022/11/04 10:51:44;;;;;;;;;;;18.30;91.00;;;;;;5107209;28;19931;-88
2022/11/04 10:54:10;;;;;;;;;;;18.30;90.90;;;;;;5104988;28;19907;-88
2022/11/04 10:56:36;;;;;;;;;;;18.30;91.20;;;;;;5104994;28;19907;-88
2022/11/04 10:59:12;;;;;;;;;;;18.30;90.90;;;;;;5103433;28;19973;-88
2022/11/04 11:01:46;;;;;;;;;;;18.40;90.90;;;;;;5103544;28;20243;-89
2022/11/04 11:04:22;;;;;;;;;;;18.40;91.00;;;;;;5104317;28;19907;-88
2022/11/04 11:06:48;;;;;;;;;;;18.40;91.00;;;;;;5107444;28;19993;-88
2022/11/04 11:09:19;;;;;;;;;;;18.40;91.00;;;;;;5104669;28;19912;-88
2022/11/04 11:11:48;;;;;;;;;;;18.30;91.10;;;;;;5063085;28;20416;-88
2022/11/04 11:14:15;;;;;;;;;;;18.40;91.40;;;;;;5099659;28;20488;-88
2022/11/04 11:16:40;;;;;;;;;;;18.40;91.60;;;;;;5104353;28;20104;-88
2022/11/04 11:19:16;;;;;;;;;;;18.40;91.60;;;;;;5104954;28;19988;-89
2022/11/04 11:21:49;;;;;;;;;;;18.40;91.60;;;;;;5105372;28;19908;-88
2022/11/04 11:24:18;;;;;;;;;;;18.40;91.60;;;;;;5106081;28;20190;-88
2022/11/04 11:26:48;;;;;;;;;;;18.40;91.60;;;;;;5107203;28;19918;-88
2022/11/04 11:29:23;;;;;;;;;;;18.50;91.70;;;;;;5106610;28;20014;-88
2022/11/04 11:31:50;;;;;;;;;;;18.40;91.70;;;;;;5105073;28;19935;-88
2022/11/04 11:34:30;;;;;;;;;;;18.40;91.90;;;;;;5102956;28;20248;-88
2022/11/04 11:36:57;;;;;;;;;;;18.30;92.00;;;;;;5087704;28;19911;-88
2022/11/04 11:39:27;;;;;;;;;;;18.30;92.20;;;;;;5104817;28;19908;-88
2022/11/04 11:42:06;;;;;;;;;;;18.20;92.40;;;;;;5106851;28;20289;-88
2022/11/04 11:44:37;;;;;;;;;;;18.20;92.50;;;;;;5108301;28;20010;-88
2022/11/04 11:47:04;;;;;;;;;;;18.10;92.70;;;;;;5107449;28;19908;-89
2022/11/04 11:49:32;;;;;;;;;;;18.00;92.80;;;;;;5105331;28;20013;-88
2022/11/04 11:52:17;;;;;;;;;;;18.00;93.00;;;;;;5104867;28;20249;-88
2022/11/04 11:54:45;;;;;;;;;;;17.90;93.20;;;;;;5103004;28;20292;-88
2022/11/04 11:57:21;;;;;;;;;;;17.90;93.40;;;;;;5100527;28;20072;-89
2022/11/04 11:59:52;;;;;;;;;;;17.80;93.50;;;;;;5100289;28;19918;-89
2022/11/04 12:02:32;;;;;;;;;;;17.80;93.70;;;;;;5100008;28;19918;-89
2022/11/04 12:04:59;;;;;;;;;;;17.80;93.80;;;;;;5100562;28;20142;-88
2022/11/04 12:07:31;;;;;;;;;;;17.70;93.90;;;;;;5099351;28;19983;-88
2022/11/04 12:10:10;;;;;;;;;;;17.70;94.00;;;;;;5098055;28;19922;-88
2022/11/04 12:13:06;;;;;;;;;;;17.60;94.10;;;;;;5100198;28;19994;-88
2022/11/04 12:15:32;;;;;;;;;;;17.60;94.20;;;;;;5081435;28;19916;-88
2022/11/04 12:18:25;;;;;;;;;;;17.60;94.40;;;;;;5102564;28;20193;-88
2022/11/04 12:20:57;;;;;;;;;;;17.60;94.50;;;;;;5102892;28;20228;-88
2022/11/04 12:23:45;;;;;;;;;;;17.50;94.60;;;;;;5102786;28;20409;-88
2022/11/04 12:26:53;;;;;;;;;;;17.50;94.70;;;;;;5097268;28;19919;-88
2022/11/04 12:29:31;;;;;;;;;;;17.50;94.90;;;;;;5007921;28;20263;-88
2022/11/04 12:31:57;;;;;;;;;;;17.50;95.10;;;;;;5005558;28;20447;-88
2022/11/04 12:34:38;;;;;;;;;;;17.40;95.20;;;;;;5067481;28;19970;-89
2022/11/04 12:37:35;;;;;;;;;;;17.50;95.20;;;;;;5103812;28;20328;-89
2022/11/04 12:40:10;;;;;;;;;;;17.40;95.30;;;;;;5104347;28;19919;-89
2022/11/04 12:42:55;;;;;;;;;;;17.40;95.40;;;;;;5088358;28;19915;-89
2022/11/04 12:45:36;;;;;;;;;;;17.40;95.50;;;;;;5104255;28;19907;-89
2022/11/04 12:48:20;;;;;;;;;;;17.40;95.50;;;;;;5102461;28;19908;-89
2022/11/04 12:51:02;;;;;;;;;;;17.40;95.50;;;;;;5102067;28;19919;-88
2022/11/04 12:53:29;;;;;;;;;;;17.40;95.50;;;;;;5102495;28;19915;-89
2022/11/04 12:56:11;;;;;;;;;;;17.40;95.50;;;;;;5101061;28;19915;-88
2022/11/04 12:58:48;;;;;;;;;;;17.50;95.50;;;;;;5101766;28;20371;-88
2022/11/04 13:01:22;;;;;;;;;;;17.50;95.50;;;;;;5102637;28;19922;-89
2022/11/04 13:03:51;;;;;;;;;;;17.50;95.50;;;;;;5101534;28;19961;-88
2022/11/04 13:06:26;;;;;;;;;;;17.50;95.40;;;;;;5102205;28;19919;-89
2022/11/04 13:08:54;;;;;;;;;;;17.60;95.40;;;;;;5103426;28;19912;-89
2022/11/04 13:11:32;;;;;;;;;;;17.60;95.30;;;;;;5104125;28;20184;-89
2022/11/04 13:14:01;;;;;;;;;;;17.60;95.30;;;;;;5102867;28;19972;-89
2022/11/04 13:16:27;;;;;;;;;;;17.60;95.20;;;;;;5104625;28;19916;-89
2022/11/04 13:18:52;;;;;;;;;;;17.60;95.20;;;;;;5103628;28;20003;-88
2022/11/04 13:21:24;;;;;;;;;;;17.60;95.20;;;;;;5105787;28;19918;-88
2022/11/04 13:23:50;;;;;;;;;;;17.60;95.20;;;;;;5103251;28;19908;-88
2022/11/04 13:26:16;;;;;;;;;;;17.60;95.20;;;;;;5105150;28;19908;-88
2022/11/04 13:28:43;;;;;;;;;;;17.60;95.20;;;;;;5106551;28;19943;-89
2022/11/04 13:31:15;;;;;;;;;;;17.60;95.20;;;;;;5106087;28;19911;-88
2022/11/04 13:34:00;;;;;;;;;;;17.60;95.30;;;;;;5103929;28;20381;-88
2022/11/04 13:36:45;;;;;;;;;;;17.60;95.30;;;;;;5103160;28;19954;-89
2022/11/04 13:39:10;;;;;;;;;;;17.60;95.30;;;;;;5104850;28;19907;-88
2022/11/04 13:41:37;;;;;;;;;;;17.60;95.30;;;;;;5109604;28;19911;-88
2022/11/04 13:44:10;;;;;;;;;;;17.60;95.30;;;;;;5106219;28;19911;-88
2022/11/04 13:46:36;;;;;;;;;;;17.60;95.20;;;;;;5106618;28;20002;-88
2022/11/04 13:49:04;;;;;;;;;;;17.60;95.30;;;;;;5106667;28;20387;-89
2022/11/04 13:51:39;;;;;;;;;;;17.60;95.30;;;;;;5108649;28;20023;-89
2022/11/04 13:54:06;;;;;;;;;;;17.60;95.30;;;;;;5109805;28;20203;-88
2022/11/04 13:56:36;;;;;;;;;;;17.50;95.40;;;;;;5108633;28;19908;-88
2022/11/04 13:59:13;;;;;;;;;;;17.50;95.40;;;;;;5108954;28;19908;-88
2022/11/04 14:01:41;;;;;;;;;;;17.50;95.40;;;;;;5107450;28;20006;-88
2022/11/04 14:04:12;;;;;;;;;;;17.50;95.50;;;;;;5106608;28;19908;-88
2022/11/04 14:06:49;;;;;;;;;;;17.50;95.50;;;;;;5109464;28;20245;-88
2022/11/04 14:09:32;;;;;;;;;;;17.50;95.60;;;;;;5108680;28;19912;-88
2022/11/04 14:12:07;;;;;;;;;;;17.50;95.60;;;;;;5106554;28;20002;-89
2022/11/04 14:14:33;;;;;;;;;;;17.40;95.70;;;;;;5106442;28;19927;-89
2022/11/04 14:17:00;;;;;;;;;;;17.40;95.70;;;;;;5106202;28;19908;-89
2022/11/04 14:19:44;;;;;;;;;;;17.40;95.80;;;;;;5106125;28;20154;-89
2022/11/04 14:22:13;;;;;;;;;;;17.40;95.80;;;;;;5105685;28;19951;-89
2022/11/04 14:24:40;;;;;;;;;;;17.40;95.90;;;;;;5106608;28;19908;-89
2022/11/04 14:27:21;;;;;;;;;;;17.40;95.90;;;;;;5106474;28;20150;-89
2022/11/04 14:29:51;;;;;;;;;;;17.40;95.90;;;;;;5102942;28;20071;-89
2022/11/04 14:32:22;;;;;;;;;;;17.40;96.00;;;;;;5106024;28;19911;-89
2022/11/04 14:34:55;;;;;;;;;;;17.40;96.00;;;;;;5106502;28;19915;-89
2022/11/04 14:37:24;;;;;;;;;;;17.40;96.30;;;;;;5103861;28;19923;-89
2022/11/04 14:39:57;;;;;;;;;;;17.30;96.10;;;;;;5105594;28;20083;-89
2022/11/04 14:42:55;;;;;;;;;;;17.30;96.10;;;;;;5110400;28;19908;-89
2022/11/04 14:45:23;;;;;;;;;;;17.30;96.20;;;;;;5064153;28;20272;-89
2022/11/04 14:48:11;;;;;;;;;;;17.30;96.20;;;;;;5108073;28;20281;-89
2022/11/04 14:50:40;;;;;;;;;;;17.30;96.30;;;;;;5105985;28;19912;-89
2022/11/04 14:53:10;;;;;;;;;;;17.30;96.40;;;;;;5108057;28;19930;-89
2022/11/04 14:55:36;;;;;;;;;;;17.20;96.40;;;;;;5109049;28;19980;-89
2022/11/04 14:58:20;;;;;;;;;;;17.20;96.40;;;;;;5107750;28;20019;-89
2022/11/04 15:00:49;;;;;;;;;;;17.20;96.50;;;;;;5105778;28;19908;-89
2022/11/04 15:03:16;;;;;;;;;;;17.20;96.50;;;;;;5104698;28;19977;-89
2022/11/04 15:05:46;;;;;;;;;;;17.20;96.50;;;;;;5103155;28;19912;-89